Time;durP1;ratioP1;P1;durP2;ratioP2;P2;SDS_P1;SDS_P2;PMS_P1;PMS_P2;Temp;Humidity;BMP_temperature;BMP_pressure;BME280_temperature;BME280_humidity;BME280_pressure;Samples;Min_cycle;Max_cycle;Signal;HPM_P1;HPM_P2
2021/01/03 00:01:57;;;;;;;48.15;21.37;;;;;;;0.35;100.00;100294.80;1736984;82;21167;-72
2021/01/03 00:04:24;;;;;;;43.92;20.10;;;;;;;0.35;100.00;100298.32;1736580;82;20954;-72
2021/01/03 00:06:53;;;;;;;39.48;20.00;;;;;;;0.33;100.00;100300.43;1735769;82;21022;-71
2021/01/03 00:09:22;;;;;;;37.95;19.67;;;;;;;0.33;100.00;100297.73;1768066;81;20998;-71
2021/01/03 00:11:50;;;;;;;39.88;20.92;;;;;;;0.34;100.00;100298.03;1768096;81;22218;-72
2021/01/03 00:14:18;;;;;;;36.20;18.80;;;;;;;0.35;100.00;100296.15;1767918;79;21160;-72
2021/01/03 00:16:48;;;;;;;43.78;21.80;;;;;;;0.33;100.00;100293.16;1769173;81;21033;-72
2021/01/03 00:19:15;;;;;;;44.53;22.40;;;;;;;0.33;100.00;100301.25;1769143;81;21049;-73
2021/01/03 00:21:43;;;;;;;48.50;22.32;;;;;;;0.32;100.00;100302.83;1769134;80;21037;-73
2021/01/03 00:24:10;;;;;;;45.88;21.70;;;;;;;0.32;100.00;100304.19;1769169;80;23343;-73
2021/01/03 00:26:38;;;;;;;49.85;22.77;;;;;;;0.29;100.00;100293.31;1740383;82;21036;-73
2021/01/03 00:29:06;;;;;;;40.00;18.62;;;;;;;0.28;100.00;100301.13;1732294;82;21517;-73
2021/01/03 00:31:43;;;;;;;38.42;19.62;;;;;;;0.25;100.00;100305.63;1732265;82;21078;-73
2021/01/03 00:34:11;;;;;;;47.43;20.15;;;;;;;0.24;100.00;100313.44;1738617;82;21159;-73
2021/01/03 00:36:39;;;;;;;46.73;21.50;;;;;;;0.23;100.00;100313.66;1715267;82;21440;-73
2021/01/03 00:39:07;;;;;;;45.50;20.60;;;;;;;0.20;100.00;100305.49;1740365;82;21072;-73
2021/01/03 00:41:35;;;;;;;51.40;23.77;;;;;;;0.19;100.00;100310.59;1732295;82;20950;-73
2021/01/03 00:44:05;;;;;;;46.73;21.90;;;;;;;0.18;100.00;100317.58;1732287;82;21112;-73
2021/01/03 00:46:33;;;;;;;47.00;21.97;;;;;;;0.18;100.00;100317.58;1732358;82;21093;-73
2021/01/03 00:49:01;;;;;;;40.50;21.60;;;;;;;0.17;100.00;100315.92;1732326;82;21640;-73
2021/01/03 00:51:28;;;;;;;45.03;20.48;;;;;;;0.15;100.00;100314.80;1738489;82;21001;-74
2021/01/03 00:53:57;;;;;;;49.10;21.17;;;;;;;0.14;100.00;100321.78;1740441;82;21061;-73
2021/01/03 00:56:25;;;;;;;54.45;20.55;;;;;;;0.13;100.00;100324.19;1732282;82;20962;-74
2021/01/03 00:58:53;;;;;;;47.43;20.35;;;;;;;0.13;100.00;100326.89;1732344;82;20958;-74
2021/01/03 01:01:22;;;;;;;44.77;22.70;;;;;;;0.13;100.00;100322.31;1732309;82;21571;-73
2021/01/03 01:03:50;;;;;;;47.08;21.77;;;;;;;0.15;100.00;100326.95;1732249;82;21140;-75
2021/01/03 01:06:18;;;;;;;51.33;23.20;;;;;;;0.15;100.00;100325.61;1732240;82;21160;-74
2021/01/03 01:08:47;;;;;;;48.50;21.25;;;;;;;0.17;100.00;100321.33;1732106;82;20994;-72
2021/01/03 01:11:15;;;;;;;36.42;17.95;;;;;;;0.18;100.00;100318.92;1766571;81;20918;-74
2021/01/03 01:13:42;;;;;;;52.73;21.70;;;;;;;0.18;100.00;100317.05;1768946;81;23527;-73
2021/01/03 01:16:09;;;;;;;57.60;21.77;;;;;;;0.17;100.00;100319.98;1769027;80;22034;-72
2021/01/03 01:18:37;;;;;;;42.53;21.93;;;;;;;0.17;100.00;100327.55;1769054;81;21156;-71
2021/01/03 01:21:06;;;;;;;47.93;23.50;;;;;;;0.18;100.00;100326.50;1754089;81;21152;-73
2021/01/03 01:23:33;;;;;;;42.90;20.90;;;;;;;0.18;100.00;100327.03;1769063;81;20934;-73
2021/01/03 01:26:01;;;;;;;41.42;19.85;;;;;;;0.20;100.00;100330.32;1769228;81;21212;-73
2021/01/03 01:28:30;;;;;;;49.25;22.93;;;;;;;0.22;100.00;100326.34;1737214;82;21124;-72
2021/01/03 01:30:58;;;;;;;60.17;22.75;;;;;;;0.23;100.00;100323.94;1703197;84;21065;-71
2021/01/03 01:33:27;;;;;;;50.43;25.12;;;;;;;0.23;100.00;100325.81;1732424;82;21061;-72
2021/01/03 01:35:54;;;;;;;46.70;22.60;;;;;;;0.21;100.00;100324.69;1716639;82;21067;-72
2021/01/03 01:38:22;;;;;;;54.03;20.72;;;;;;;0.21;100.00;100332.80;1711072;83;21214;-71
2021/01/03 01:40:49;;;;;;;40.98;21.55;;;;;;;0.19;100.00;100330.03;1711027;83;21578;-71
2021/01/03 01:43:19;;;;;;;49.63;21.55;;;;;;;0.18;100.00;100329.20;1711023;83;21430;-71
2021/01/03 01:45:48;;;;;;;59.30;23.00;;;;;;;0.16;100.00;100327.26;1711094;83;21586;-72
2021/01/03 01:48:28;;;;;;;42.55;20.48;;;;;;;0.13;100.00;100329.59;1711147;83;20985;-72
2021/01/03 01:51:00;;;;;;;55.20;24.27;;;;;;;0.09;100.00;100329.74;1756359;81;22247;-73
2021/01/03 01:53:36;;;;;;;46.02;21.17;;;;;;;0.07;100.00;100331.84;1769274;80;21151;-73
2021/01/03 01:56:17;;;;;;;39.48;19.12;;;;;;;0.05;100.00;100329.38;1768935;80;21484;-73
2021/01/03 01:58:56;;;;;;;43.58;19.73;;;;;;;0.03;100.00;100330.12;1769248;81;21021;-72
2021/01/03 02:01:32;;;;;;;54.33;20.85;;;;;;;0.02;100.00;100332.53;1769271;81;21068;-73
2021/01/03 02:04:10;;;;;;;45.75;20.90;;;;;;;0.00;100.00;100335.45;1762388;79;21602;-73
2021/01/03 02:06:52;;;;;;;45.83;20.60;;;;;;;-0.03;100.00;100335.94;1769272;81;21595;-75
2021/01/03 02:09:56;;;;;;;42.17;20.88;;;;;;;-0.05;100.00;100334.52;1769231;81;21165;-74
2021/01/03 02:12:32;;;;;;;57.38;23.07;;;;;;;-0.06;100.00;100332.88;1738714;82;21064;-75
2021/01/03 02:15:00;;;;;;;49.25;21.37;;;;;;;-0.08;100.00;100326.88;1738584;82;21148;-73
2021/01/03 02:17:27;;;;;;;41.53;20.72;;;;;;;-0.07;100.00;100335.27;1738718;82;21379;-73
2021/01/03 02:19:55;;;;;;;38.73;19.00;;;;;;;-0.07;100.00;100341.50;1738686;82;20938;-73
2021/01/03 02:22:49;;;;;;;36.15;19.25;;;;;;;-0.08;100.00;100340.38;1738733;82;20954;-73
2021/01/03 02:25:18;;;;;;;52.53;18.98;;;;;;;-0.08;100.00;100340.38;1738702;82;21005;-73
2021/01/03 02:28:16;;;;;;;42.58;19.92;;;;;;;-0.10;100.00;100338.42;1703819;83;21185;-74
2021/01/03 02:30:48;;;;;;;41.10;19.65;;;;;;;-0.15;100.00;100343.15;1703269;84;22272;-73
2021/01/03 02:33:28;;;;;;;36.45;17.98;;;;;;;-0.16;100.00;100344.73;1681527;84;20926;-73
2021/01/03 02:36:00;;;;;;;33.83;17.92;;;;;;;-0.19;100.00;100339.25;1711013;83;20935;-73
2021/01/03 02:38:29;;;;;;;30.43;16.48;;;;;;;-0.22;100.00;100337.01;1711109;83;21168;-73
2021/01/03 02:40:57;;;;;;;41.92;19.62;;;;;;;-0.23;100.00;100335.36;1711067;83;20931;-73
2021/01/03 02:43:25;;;;;;;36.50;18.92;;;;;;;-0.21;100.00;100332.44;1711052;83;21343;-72
2021/01/03 02:45:53;;;;;;;36.50;17.60;;;;;;;-0.21;100.00;100334.61;1710921;83;20962;-73
2021/01/03 02:48:23;;;;;;;34.70;16.48;;;;;;;-0.23;100.00;100328.61;1687086;83;21576;-72
2021/01/03 02:50:51;;;;;;;33.90;18.62;;;;;;;-0.22;100.00;100332.13;1710968;83;21513;-72
2021/01/03 02:53:19;;;;;;;42.73;19.05;;;;;;;-0.23;100.00;100327.27;1711137;83;21538;-73
2021/01/03 02:55:47;;;;;;;39.10;18.30;;;;;;;-0.22;100.00;100328.91;1710951;83;21392;-73
2021/01/03 02:58:15;;;;;;;32.75;17.37;;;;;;;-0.22;100.00;100323.52;1710962;83;21516;-73
2021/01/03 03:00:43;;;;;;;40.90;18.45;;;;;;;-0.22;100.00;100324.04;1710994;83;20907;-74
2021/01/03 03:03:11;;;;;;;34.18;17.55;;;;;;;-0.22;100.00;100332.13;1705065;83;21005;-73
2021/01/03 03:05:39;;;;;;;36.08;17.10;;;;;;;-0.24;100.00;100329.66;1710950;83;21128;-73
2021/01/03 03:08:06;;;;;;;29.87;14.40;;;;;;;-0.25;100.00;100323.97;1711021;83;21377;-73
2021/01/03 03:10:34;;;;;;;41.35;17.60;;;;;;;-0.29;100.00;100326.81;1711042;83;21076;-73
2021/01/03 03:13:02;;;;;;;34.03;16.93;;;;;;;-0.31;100.00;100324.05;1711016;83;21006;-73
2021/01/03 03:18:08;;;;;;;29.45;16.15;;;;;;;-0.29;100.00;100328.16;1873642;76;22693;-73
2021/01/03 03:20:36;;;;;;;36.58;18.50;;;;;;;-0.32;100.00;100331.84;1841653;78;21478;-74
2021/01/03 03:23:04;;;;;;;43.05;18.60;;;;;;;-0.31;100.00;100334.84;1833005;78;21181;-74
2021/01/03 03:25:32;;;;;;;34.65;17.77;;;;;;;-0.30;100.00;100333.27;1808491;79;21007;-74
2021/01/03 03:28:00;;;;;;;43.25;19.75;;;;;;;-0.28;100.00;100334.38;1808502;79;21015;-73
2021/01/03 03:30:27;;;;;;;34.38;18.48;;;;;;;-0.28;100.00;100328.47;1808543;78;20909;-72
2021/01/03 03:32:55;;;;;;;28.12;14.07;;;;;;;-0.26;100.00;100333.63;1808581;79;20932;-71
2021/01/03 03:35:27;;;;;;;31.62;15.30;;;;;;;-0.29;100.00;100327.34;1748845;80;21436;-72
2021/01/03 03:37:55;;;;;;;29.82;15.28;;;;;;;-0.31;100.00;100333.48;1759674;81;21081;-72
2021/01/03 03:40:23;;;;;;;27.85;14.18;;;;;;;-0.32;100.00;100341.28;1748893;80;21515;-72
2021/01/03 03:42:51;;;;;;;26.93;12.18;;;;;;;-0.34;100.00;100339.63;1759570;81;21038;-72
2021/01/03 03:45:19;;;;;;;43.70;16.40;;;;;;;-0.36;100.00;100348.47;1748591;82;21500;-72
2021/01/03 03:47:47;;;;;;;28.83;14.30;;;;;;;-0.36;100.00;100342.25;1742939;81;21204;-72
2021/01/03 03:50:18;;;;;;;31.75;15.08;;;;;;;-0.34;100.00;100349.08;1753670;80;21025;-72
2021/01/03 03:52:46;;;;;;;31.80;15.50;;;;;;;-0.33;100.00;100340.45;1723687;83;20942;-72
2021/01/03 03:55:13;;;;;;;34.30;16.50;;;;;;;-0.33;100.00;100339.11;1723689;83;21563;-73
2021/01/03 03:57:42;;;;;;;37.45;15.48;;;;;;;-0.32;100.00;100336.71;1726628;81;21651;-73
2021/01/03 04:00:16;;;;;;;31.90;17.48;;;;;;;-0.32;100.00;100334.02;1759611;81;21316;-73
2021/01/03 04:02:44;;;;;;;29.95;15.13;;;;;;;-0.31;100.00;100341.05;1759392;80;20986;-72
2021/01/03 04:05:16;;;;;;;29.80;15.28;;;;;;;-0.32;100.00;100333.19;1759508;81;21563;-72
2021/01/03 04:07:44;;;;;;;31.73;13.98;;;;;;;-0.34;100.00;100338.80;1758838;81;21798;-71
2021/01/03 04:10:13;;;;;;;31.62;16.05;;;;;;;-0.34;100.00;100342.33;1759573;81;20982;-71
2021/01/03 04:12:40;;;;;;;29.98;15.05;;;;;;;-0.35;100.00;100339.33;1752622;80;21195;-72
2021/01/03 04:15:11;;;;;;;29.52;13.95;;;;;;;-0.35;100.00;100343.91;1739412;81;21121;-71
2021/01/03 04:17:39;;;;;;;32.35;14.68;;;;;;;-0.36;100.00;100339.03;1729068;82;20958;-72
2021/01/03 04:20:10;;;;;;;35.38;15.10;;;;;;;-0.35;100.00;100336.63;1731894;81;20954;-72
2021/01/03 04:22:38;;;;;;;28.75;13.20;;;;;;;-0.34;100.00;100330.72;1731957;82;21488;-72
2021/01/03 04:25:07;;;;;;;30.15;13.85;;;;;;;-0.31;100.00;100328.91;1731409;82;21355;-73
2021/01/03 04:27:34;;;;;;;29.82;13.72;;;;;;;-0.31;100.00;100332.96;1755017;79;21035;-73
2021/01/03 04:30:05;;;;;;;32.75;14.65;;;;;;;-0.30;100.00;100326.52;1740078;81;20986;-71
2021/01/03 04:32:33;;;;;;;26.62;12.63;;;;;;;-0.28;100.00;100324.94;1767606;81;21025;-71
2021/01/03 04:35:01;;;;;;;27.73;12.68;;;;;;;-0.29;100.00;100329.52;1767243;81;21203;-72
2021/01/03 04:37:29;;;;;;;29.65;13.72;;;;;;;-0.27;100.00;100332.81;1751963;81;21367;-72
2021/01/03 04:39:57;;;;;;;33.63;14.05;;;;;;;-0.26;100.00;100329.06;1731149;82;21024;-72
2021/01/03 04:42:30;;;;;;;33.95;13.65;;;;;;;-0.26;100.00;100330.94;1731137;82;20965;-72
2021/01/03 04:45:07;;;;;;;30.48;14.70;;;;;;;-0.25;100.00;100333.94;1746168;79;21082;-72
2021/01/03 04:47:59;;;;;;;28.70;13.40;;;;;;;-0.19;100.00;100331.69;1910946;74;22676;-74
2021/01/03 04:50:54;;;;;;;34.88;14.60;;;;;;;-0.20;100.00;100331.38;1849970;77;21126;-71
2021/01/03 04:53:57;;;;;;;33.08;13.65;;;;;;;-0.19;100.00;100340.61;1849661;77;21183;-72
2021/01/03 04:56:43;;;;;;;32.23;14.58;;;;;;;-0.19;100.00;100337.91;1848812;77;21003;-75
2021/01/03 04:59:41;;;;;;;35.23;15.28;;;;;;;-0.18;100.00;100344.95;1831365;76;21482;-72
2021/01/03 05:02:44;;;;;;;35.17;14.55;;;;;;;-0.16;100.00;100346.90;1821993;77;21450;-73
2021/01/03 05:05:23;;;;;;;34.40;14.23;;;;;;;-0.13;100.00;100346.97;1775687;80;20928;-73
2021/01/03 05:08:20;;;;;;;35.50;15.23;;;;;;;-0.09;100.00;100346.82;1743509;81;21487;-76
2021/01/03 05:10:47;;;;;;;36.48;16.07;;;;;;;-0.07;100.00;100349.59;1722166;81;21551;-75
2021/01/03 05:13:56;;;;;;;32.95;14.38;;;;;;;-0.03;100.00;100347.27;1749445;81;20993;-66
2021/01/03 05:16:23;;;;;;;34.50;15.05;;;;;;;0.01;100.00;100353.83;1806824;79;21049;-76
2021/01/03 05:18:51;;;;;;;38.15;16.37;;;;;;;0.03;100.00;100348.20;1807113;79;21057;-71
2021/01/03 05:21:19;;;;;;;33.88;15.70;;;;;;;0.06;100.00;100353.97;1807181;79;21468;-69
2021/01/03 05:24:01;;;;;;;41.37;17.52;;;;;;;0.10;100.00;100361.09;1824909;78;20958;-71
2021/01/03 05:26:36;;;;;;;39.15;15.68;;;;;;;0.10;100.00;100355.17;1780246;79;21497;-70
2021/01/03 05:29:05;;;;;;;37.45;15.90;;;;;;;0.13;100.00;100357.94;1800722;78;21172;-70
2021/01/03 05:31:32;;;;;;;43.10;16.67;;;;;;;0.16;100.00;100357.48;1807405;79;20939;-72
2021/01/03 05:34:06;;;;;;;40.45;18.00;;;;;;;0.16;100.00;100352.91;1793801;80;21477;-71
2021/01/03 05:36:47;;;;;;;36.80;16.20;;;;;;;0.18;100.00;100359.42;1807194;78;21638;-68
2021/01/03 05:39:23;;;;;;;38.92;17.15;;;;;;;0.20;100.00;100359.50;1793840;80;21005;-68
2021/01/03 05:42:02;;;;;;;40.73;15.88;;;;;;;0.22;100.00;100366.84;1807441;79;21493;-70
2021/01/03 05:44:34;;;;;;;36.88;16.85;;;;;;;0.26;100.00;100360.47;1793934;80;21488;-69
2021/01/03 05:47:40;;;;;;;39.48;17.50;;;;;;;0.27;100.00;100352.13;1773917;81;21261;-70
2021/01/03 05:50:18;;;;;;;38.30;15.68;;;;;;;0.28;100.00;100357.01;1807410;79;20950;-69
2021/01/03 05:52:55;;;;;;;36.30;15.63;;;;;;;0.31;100.00;100347.09;1793860;80;21009;-70
2021/01/03 05:55:28;;;;;;;40.85;17.42;;;;;;;0.33;100.00;100354.45;1731939;81;20930;-73
2021/01/03 05:58:12;;;;;;;39.92;17.07;;;;;;;0.35;100.00;100344.23;1792293;79;21616;-72
2021/01/03 06:00:40;;;;;;;42.50;15.85;;;;;;;0.38;100.00;100348.36;1825606;78;21376;-73
2021/01/03 06:03:17;;;;;;;34.27;15.40;;;;;;;0.41;100.00;100346.55;1806460;78;20954;-73
2021/01/03 06:05:52;;;;;;;44.18;16.60;;;;;;;0.44;100.00;100346.09;1859685;77;20986;-73
2021/01/03 06:08:27;;;;;;;38.53;17.10;;;;;;;0.46;100.00;100338.58;1826112;78;21473;-71
2021/01/03 06:10:56;;;;;;;34.45;15.53;;;;;;;0.47;100.00;100345.11;1859797;77;21036;-72
2021/01/03 06:13:25;;;;;;;40.80;17.23;;;;;;;0.50;100.00;100349.22;1772871;78;23583;-72
2021/01/03 06:15:58;;;;;;;44.38;18.25;;;;;;;0.52;100.00;100341.72;1859662;77;21481;-72
2021/01/03 06:18:43;;;;;;;38.55;16.05;;;;;;;0.54;100.00;100341.78;1826049;78;20969;-71
2021/01/03 06:21:19;;;;;;;43.70;18.23;;;;;;;0.56;100.00;100346.42;1859816;77;21588;-71
2021/01/03 06:24:13;;;;;;;38.35;16.48;;;;;;;0.58;100.00;100346.98;1826085;78;21544;-72
2021/01/03 06:26:49;;;;;;;43.60;19.98;;;;;;;0.61;100.00;100338.95;1859108;77;21079;-73
2021/01/03 06:29:35;;;;;;;48.50;22.98;;;;;;;0.64;100.00;100346.06;1776363;80;21028;-72
2021/01/03 06:32:38;;;;;;;65.05;32.25;;;;;;;0.67;100.00;100340.73;1793177;80;21489;-72
2021/01/03 06:35:31;;;;;;;47.90;24.27;;;;;;;0.69;100.00;100337.27;1761384;81;21128;-72
2021/01/03 06:38:29;;;;;;;52.55;23.95;;;;;;;0.72;100.00;100331.39;1793412;80;21060;-72
2021/01/03 06:41:14;;;;;;;45.63;19.50;;;;;;;0.74;100.00;100325.77;1792352;78;20976;-72
2021/01/03 06:44:09;;;;;;;47.73;20.25;;;;;;;0.76;100.00;100331.76;1792487;80;21027;-73
2021/01/03 06:47:12;;;;;;;50.95;21.57;;;;;;;0.79;100.00;100334.00;1791619;80;20966;-72
2021/01/03 06:50:10;;;;;;;47.95;21.70;;;;;;;0.80;100.00;100322.95;1792655;80;20894;-74
2021/01/03 06:52:46;;;;;;;47.03;19.20;;;;;;;0.85;100.00;100331.19;1792726;80;21116;-73
2021/01/03 06:55:47;;;;;;;60.48;29.00;;;;;;;0.88;100.00;100331.25;1774905;80;21431;-73
2021/01/03 06:59:17;;;;;;;58.92;27.35;;;;;;;0.96;100.00;100338.49;1888240;76;21809;-74
2021/01/03 07:01:45;;;;;;;58.52;28.57;;;;;;;0.95;100.00;100336.84;1727413;81;21174;-72
2021/01/03 07:04:19;;;;;;;61.58;29.92;;;;;;;1.00;100.00;100332.09;1811063;77;21378;-73
2021/01/03 07:06:47;;;;;;;62.38;29.00;;;;;;;1.04;100.00;100331.92;1865755;76;21548;-73
2021/01/03 07:09:14;;;;;;;64.47;28.73;;;;;;;1.08;100.00;100336.33;1866778;76;21566;-71
2021/01/03 07:11:54;;;;;;;71.80;34.88;;;;;;;1.09;100.00;100333.39;1866846;76;21021;-72
2021/01/03 07:14:28;;;;;;;57.70;26.25;;;;;;;1.12;100.00;100330.75;1834496;76;21014;-73
2021/01/03 07:17:00;;;;;;;56.18;25.92;;;;;;;1.16;100.00;100321.08;1822093;78;21426;-73
2021/01/03 07:19:35;;;;;;;52.10;21.37;;;;;;;1.18;100.00;100326.55;1831493;77;21515;-72
2021/01/03 07:22:13;;;;;;;76.65;34.35;;;;;;;1.20;100.00;100321.72;1850028;77;20958;-72
2021/01/03 07:24:55;;;;;;;72.72;36.53;;;;;;;1.21;100.00;100316.61;1821535;77;21468;-72
2021/01/03 07:27:34;;;;;;;96.32;45.20;;;;;;;1.24;100.00;100309.38;1812173;79;20914;-72
2021/01/03 07:30:08;;;;;;;74.00;35.48;;;;;;;1.29;100.00;100319.48;1729156;83;21314;-73
2021/01/03 07:32:59;;;;;;;63.35;34.35;;;;;;;1.31;100.00;100314.66;1727609;82;21116;-73
2021/01/03 07:35:33;;;;;;;103.15;57.25;;;;;;;1.35;100.00;100307.72;1752095;81;20986;-74
2021/01/03 07:38:20;;;;;;;104.53;50.95;;;;;;;1.38;100.00;100310.48;1752050;82;20907;-72
2021/01/03 07:40:51;;;;;;;57.53;29.67;;;;;;;1.39;100.00;100306.72;1812756;78;20977;-73
2021/01/03 07:43:19;;;;;;;46.92;25.92;;;;;;;1.42;100.00;100307.07;1822220;78;21357;-71
2021/01/03 07:45:47;;;;;;;42.50;19.85;;;;;;;1.47;100.00;100318.53;1821998;78;20978;-73
2021/01/03 07:48:31;;;;;;;;;;;;;;;1.50;100.00;100309.95;1824691;78;20985;-70
2021/01/03 07:50:58;;;;;;;39.83;18.40;;;;;;;1.54;100.00;100311.94;1819690;77;20139;-70
2021/01/03 07:53:35;;;;;;;51.33;24.10;;;;;;;1.56;100.00;100308.99;1821506;77;21013;-70
2021/01/03 07:56:25;;;;;;;40.73;19.65;;;;;;;1.58;100.00;100306.88;1819126;78;21347;-70
2021/01/03 07:58:55;;;;;;;37.70;15.50;;;;;;;1.63;100.00;100302.92;1819060;78;20938;-70
2021/01/03 08:01:26;;;;;;;35.33;16.23;;;;;;;1.66;100.00;100298.39;1816529;79;20910;-71
2021/01/03 08:03:54;;;;;;;29.10;14.58;;;;;;;1.67;100.00;100300.56;1818160;78;20879;-69
2021/01/03 08:06:21;;;;;;;28.38;14.73;;;;;;;1.67;100.00;100302.73;1816580;78;20902;-70
2021/01/03 08:08:55;;;;;;;35.17;17.05;;;;;;;1.68;100.00;100315.21;1816191;79;21363;-69
2021/01/03 08:11:39;;;;;;;37.08;18.87;;;;;;;1.67;100.00;100316.27;1818806;78;20923;-70
2021/01/03 08:14:24;;;;;;;75.00;39.05;;;;;;;1.69;100.00;100322.80;1821459;78;21528;-70
2021/01/03 08:17:01;;;;;;;135.45;69.60;;;;;;;1.72;100.00;100319.62;1821424;78;20904;-69
2021/01/03 08:19:30;;;;;;;342.05;163.85;;;;;;;1.76;100.00;100317.52;1821405;78;20876;-69
2021/01/03 08:22:00;;;;;;;117.72;57.80;;;;;;;1.76;100.00;100319.40;1821471;78;21121;-70
2021/01/03 08:24:29;;;;;;;63.05;31.70;;;;;;;1.76;100.00;100322.93;1821362;78;20954;-69
2021/01/03 08:27:05;;;;;;;43.33;22.55;;;;;;;1.80;100.00;100317.33;1817204;77;20990;-71
2021/01/03 08:29:45;;;;;;;49.30;28.40;;;;;;;1.80;100.00;100325.45;1806859;79;20926;-70
2021/01/03 08:32:22;;;;;;;55.52;29.02;;;;;;;1.83;100.00;100331.74;1787088;79;20907;-72
2021/01/03 08:35:05;;;;;;;29.23;16.32;;;;;;;1.90;100.00;100334.31;1873048;75;22403;-70
2021/01/03 08:37:43;;;;;;;38.58;21.30;;;;;;;1.88;100.00;100341.86;1837110;78;21566;-71
2021/01/03 08:40:32;;;;;;;48.65;24.55;;;;;;;1.90;100.00;100339.20;1794376;79;22353;-70
2021/01/03 08:43:09;;;;;;;34.38;21.02;;;;;;;1.94;100.00;100345.78;1808286;79;20944;-70
2021/01/03 08:45:39;;;;;;;40.88;23.67;;;;;;;2.01;100.00;100346.18;1832220;77;21482;-71
2021/01/03 08:48:19;;;;;;;29.65;15.03;;;;;;;2.05;100.00;100346.81;1841316;78;21031;-68
2021/01/03 08:50:47;;;;;;;38.02;21.48;;;;;;;2.06;100.00;100342.22;1841317;78;21114;-71
2021/01/03 08:53:23;;;;;;;30.30;14.65;;;;;;;2.06;100.00;100348.46;1841255;78;22133;-70
2021/01/03 08:56:21;;;;;;;33.90;19.90;;;;;;;2.06;100.00;100353.88;1841330;78;21598;-71
2021/01/03 08:58:49;;;;;;;29.82;17.77;;;;;;;2.07;100.00;100353.34;1841195;78;20920;-69
2021/01/03 09:01:26;;;;;;;26.95;16.75;;;;;;;2.05;100.00;100350.05;1841053;78;21585;-70
2021/01/03 09:03:56;;;;;;;27.30;15.00;;;;;;;2.04;100.00;100348.41;1841458;78;21019;-71
2021/01/03 09:06:23;;;;;;;29.37;18.48;;;;;;;2.03;100.00;100352.18;1841584;78;22368;-71
2021/01/03 09:08:51;;;;;;;40.30;24.20;;;;;;;2.01;100.00;100357.02;1811524;78;20896;-71
2021/01/03 09:11:35;;;;;;;46.95;29.12;;;;;;;2.03;100.00;100356.24;1841715;77;21478;-70
2021/01/03 09:14:42;;;;;;;62.03;35.83;;;;;;;2.05;100.00;100350.05;1812027;78;20980;-70
2021/01/03 09:17:17;;;;;;;65.47;34.27;;;;;;;2.09;100.00;100349.86;1838660;78;20870;-70
2021/01/03 09:19:59;;;;;;;79.65;43.35;;;;;;;2.09;100.00;100340.39;1836084;78;22077;-71
2021/01/03 09:22:34;;;;;;;73.78;37.98;;;;;;;2.05;100.00;100337.34;1830491;78;21024;-71
2021/01/03 09:25:10;;;;;;;73.72;39.50;;;;;;;2.02;100.00;100330.22;1776785;80;21597;-71
2021/01/03 09:27:38;;;;;;;55.25;30.75;;;;;;;1.96;100.00;100331.47;1761180;79;21765;-71
2021/01/03 09:30:21;;;;;;;57.03;31.52;;;;;;;1.91;100.00;100334.08;1729349;82;21078;-70
2021/01/03 09:33:10;;;;;;;33.63;18.55;;;;;;;1.86;100.00;100331.27;1702908;83;21381;-71
2021/01/03 09:36:17;;;;;;;25.15;14.68;;;;;;;1.78;99.45;100331.63;1751052;82;21539;-71
2021/01/03 09:39:10;;;;;;;88.30;43.52;;;;;;;1.70;99.38;100321.20;1751975;80;21164;-72
2021/01/03 09:42:20;;;;;;;43.92;23.62;;;;;;;1.73;100.00;100318.02;1751446;80;20938;-70
2021/01/03 09:45:15;;;;;;;37.30;23.65;;;;;;;1.77;100.00;100321.87;1730993;80;21139;-70
2021/01/03 09:47:45;;;;;;;52.17;26.65;;;;;;;1.83;100.00;100330.39;1740260;80;21393;-72
2021/01/03 09:50:25;;;;;;;62.38;26.82;;;;;;;1.88;100.00;100333.20;1739178;81;20989;-73
2021/01/03 09:53:10;;;;;;;91.30;44.48;;;;;;;1.92;100.00;100328.13;1738332;80;20994;-74
2021/01/03 09:55:54;;;;;;;55.73;33.95;;;;;;;1.95;99.67;100325.77;1745384;81;21180;-74
2021/01/03 09:58:23;;;;;;;51.30;30.32;;;;;;;2.05;99.82;100325.68;1729302;82;21584;-72
2021/01/03 10:00:57;;;;;;;35.85;20.97;;;;;;;2.14;98.86;100326.41;1727254;83;21248;-73
2021/01/03 10:03:39;;;;;;;21.73;11.90;;;;;;;2.16;97.58;100325.64;1747855;81;20949;-72
2021/01/03 10:06:30;;;;;;;170.02;92.22;;;;;;;2.17;96.19;100327.81;1724590;82;21017;-73
2021/01/03 10:09:24;;;;;;;82.27;44.35;;;;;;;2.19;96.53;100321.09;1750618;80;21483;-73
2021/01/03 10:11:52;;;;;;;33.20;20.75;;;;;;;2.21;95.58;100316.25;1753549;81;21203;-74
2021/01/03 10:14:30;;;;;;;89.40;50.20;;;;;;;2.22;95.76;100311.13;1766176;80;22036;-72
2021/01/03 10:17:18;;;;;;;36.00;20.40;;;;;;;2.27;95.92;100306.34;1766360;81;21531;-74
2021/01/03 10:19:46;;;;;;;29.00;14.18;;;;;;;2.34;95.83;100292.08;1765182;81;21136;-74
2021/01/03 10:22:35;;;;;;;23.60;14.73;;;;;;;2.45;96.29;100289.02;1766250;81;21005;-75
2021/01/03 10:25:06;;;;;;;52.08;28.10;;;;;;;2.49;95.18;100291.00;1711431;81;21045;-75
2021/01/03 10:27:33;;;;;;;87.40;38.85;;;;;;;2.57;94.87;100295.20;1756681;81;21387;-75
2021/01/03 10:30:01;;;;;;;65.35;29.37;;;;;;;2.62;94.70;100285.27;1705657;84;21108;-74
2021/01/03 10:32:30;;;;;;;31.55;16.23;;;;;;;2.65;93.96;100291.55;1705723;82;20898;-75
2021/01/03 10:34:57;;;;;;;48.33;21.97;;;;;;;2.65;93.05;100286.66;1705472;82;21488;-75
2021/01/03 10:37:28;;;;;;;41.10;16.70;;;;;;;2.60;91.63;100286.05;1705733;82;20942;-75
2021/01/03 10:39:56;;;;;;;94.83;34.08;;;;;;;2.58;91.92;100292.24;1705811;84;22708;-75
2021/01/03 10:42:23;;;;;;;56.23;24.65;;;;;;;2.62;92.11;100296.64;1705711;84;21563;-75
2021/01/03 10:44:51;;;;;;;28.62;15.72;;;;;;;2.68;91.30;100290.77;1729537;82;20894;-75
2021/01/03 10:47:18;;;;;;;26.12;14.90;;;;;;;2.70;91.01;100291.34;1750602;82;20993;-75
2021/01/03 10:49:46;;;;;;;27.17;15.45;;;;;;;2.81;91.60;100283.67;1724979;80;21024;-75
2021/01/03 10:52:13;;;;;;;48.58;25.00;;;;;;;2.99;90.99;100277.42;1720739;83;21300;-75
2021/01/03 10:54:41;;;;;;;39.80;20.12;;;;;;;3.12;90.88;100275.44;1727238;82;20958;-75
2021/01/03 10:57:09;;;;;;;43.95;20.62;;;;;;;3.21;90.65;100280.20;1750617;82;20925;-75
2021/01/03 10:59:37;;;;;;;26.57;13.95;;;;;;;3.22;90.33;100279.12;1729350;80;21056;-75
2021/01/03 11:02:04;;;;;;;38.05;19.40;;;;;;;3.25;89.86;100282.70;1720833;83;20988;-75
2021/01/03 11:04:32;;;;;;;69.70;32.80;;;;;;;3.23;89.26;100280.77;1720784;83;21382;-75
2021/01/03 11:07:01;;;;;;;72.95;30.82;;;;;;;3.22;89.30;100275.59;1743616;81;20949;-75
2021/01/03 11:09:31;;;;;;;69.82;35.90;;;;;;;3.18;88.31;100271.73;1741111;80;21083;-76
2021/01/03 11:12:13;;;;;;;56.98;30.10;;;;;;;3.13;87.49;100271.66;1729126;80;21589;-69
2021/01/03 11:14:42;;;;;;;29.10;18.55;;;;;;;3.10;87.18;100265.38;1726679;82;21028;-71
2021/01/03 11:17:13;;;;;;;176.47;104.65;;;;;;;3.26;87.97;100268.59;1732780;82;21376;-71
2021/01/03 11:19:41;;;;;;;155.72;79.62;;;;;;;3.61;88.15;100266.87;1736430;82;21016;-73
2021/01/03 11:22:12;;;;;;;39.03;20.25;;;;;;;4.19;87.90;100263.44;1720554;82;20957;-76
2021/01/03 11:24:40;;;;;;;29.35;14.73;;;;;;;4.76;83.82;100253.87;1720681;83;20954;-68
2021/01/03 11:27:14;;;;;;;13.43;8.43;;;;;;;5.05;79.41;100250.28;1720558;83;21167;-70
2021/01/03 11:29:43;;;;;;;14.78;9.48;;;;;;;5.33;77.70;100254.50;1735768;82;21545;-70
2021/01/03 11:32:15;;;;;;;29.00;17.07;;;;;;;5.62;75.87;100255.75;1734748;80;20914;-71
2021/01/03 11:34:42;;;;;;;18.00;9.67;;;;;;;5.91;75.01;100254.23;1734421;81;21162;-70
2021/01/03 11:37:13;;;;;;;11.00;7.45;;;;;;;6.12;74.23;100252.92;1729546;83;21083;-70
2021/01/03 11:39:40;;;;;;;13.45;7.78;;;;;;;6.15;73.72;100260.56;1729377;83;21058;-70
2021/01/03 11:42:13;;;;;;;14.68;9.28;;;;;;;6.15;73.72;100260.56;1729462;81;21996;-70
2021/01/03 11:44:43;;;;;;;19.55;12.20;;;;;;;5.92;73.47;100256.41;1753153;80;20965;-70
2021/01/03 11:47:13;;;;;;;13.25;8.08;;;;;;;5.52;74.11;100255.16;1759677;81;20937;-70